Time;durP1;ratioP1;P1;durP2;ratioP2;P2;SDS_P1;SDS_P2;PMS_P1;PMS_P2;Temp;Humidity;BMP_temperature;BMP_pressure;BME280_temperature;BME280_humidity;BME280_pressure;Samples;Min_cycle;Max_cycle;Signal;HPM_P1;HPM_P2
2021/12/10 00:00:05;;;;;;;8.73;4.50;;;;;;;;;;4933442;29;20193;-76
2021/12/10 00:02:34;;;;;;;8.33;4.80;;;;;;;;;;4926759;29;20186;-76
2021/12/10 00:05:01;;;;;;;12.07;4.77;;;;;;;;;;4926906;29;20194;-76
2021/12/10 00:07:28;;;;;;;12.10;4.53;;;;;;;;;;4932724;29;20258;-76
2021/12/10 00:09:58;;;;;;;10.33;4.53;;;;;;;;;;4913698;29;20927;-76
2021/12/10 00:12:36;;;;;;;9.83;4.37;;;;;;;;;;4927293;29;20713;-76
2021/12/10 00:15:04;;;;;;;10.30;4.30;;;;;;;;;;4933050;29;20563;-76
2021/12/10 00:17:30;;;;;;;7.53;4.30;;;;;;;;;;4914887;29;20193;-77
2021/12/10 00:19:58;;;;;;;8.23;4.80;;;;;;;;;;4927500;29;20194;-76
2021/12/10 00:22:25;;;;;;;7.40;4.60;;;;;;;;;;4915571;29;20186;-76
2021/12/10 00:24:54;;;;;;;10.67;4.20;;;;;;;;;;4943705;29;20224;-76
2021/12/10 00:27:31;;;;;;;8.83;4.50;;;;;;;;;;4937962;29;20681;-76
2021/12/10 00:30:07;;;;;;;7.87;3.93;;;;;;;;;;4931800;29;20206;-76
2021/12/10 00:32:37;;;;;;;8.73;4.40;;;;;;;;;;4928172;29;20254;-76
2021/12/10 00:35:07;;;;;;;8.87;4.60;;;;;;;;;;4937612;29;20594;-76
2021/12/10 00:37:34;;;;;;;9.97;4.43;;;;;;;;;;4934350;29;20598;-77
2021/12/10 00:40:01;;;;;;;11.03;4.57;;;;;;;;;;4937862;28;20178;-76
2021/12/10 00:42:29;;;;;;;7.67;3.70;;;;;;;;;;4912073;29;20620;-76
2021/12/10 00:44:57;;;;;;;11.10;4.17;;;;;;;;;;4935670;29;20197;-76
2021/12/10 00:47:23;;;;;;;9.97;4.27;;;;;;;;;;4937096;29;20192;-77
2021/12/10 00:49:50;;;;;;;8.97;4.30;;;;;;;;;;4922564;29;20190;-77
2021/12/10 00:52:17;;;;;;;9.20;4.27;;;;;;;;;;4916086;29;20217;-76
2021/12/10 00:54:44;;;;;;;9.83;4.17;;;;;;;;;;4916123;29;20200;-76
2021/12/10 00:57:12;;;;;;;8.70;4.17;;;;;;;;;;4934258;29;20193;-76
2021/12/10 00:59:39;;;;;;;7.30;4.03;;;;;;;;;;4914898;29;20265;-76
2021/12/10 01:02:08;;;;;;;9.97;4.30;;;;;;;;;;4935183;29;20241;-76
2021/12/10 01:04:36;;;;;;;8.07;3.93;;;;;;;;;;4932845;29;20621;-76
2021/12/10 01:07:04;;;;;;;7.33;3.60;;;;;;;;;;4915684;29;20197;-76
2021/12/10 01:09:32;;;;;;;14.63;4.37;;;;;;;;;;4916968;29;20615;-76
2021/12/10 01:12:03;;;;;;;8.23;4.20;;;;;;;;;;4914450;29;20632;-76
2021/12/10 01:25:53;;;;;;;10.50;3.90;;;;;;;;;;4933824;29;20217;-76
2021/12/10 01:28:19;;;;;;;11.10;3.90;;;;;;;;;;4930044;29;20213;-76
2021/12/10 01:30:45;;;;;;;8.60;3.80;;;;;;;;;;4916105;29;20182;-76
2021/12/10 01:33:13;;;;;;;10.50;4.30;;;;;;;;;;4938401;29;20231;-77
2021/12/10 01:35:43;;;;;;;7.60;4.27;;;;;;;;;;4937086;29;20196;-77
2021/12/10 01:38:10;;;;;;;7.37;3.53;;;;;;;;;;4932082;29;20210;-76
2021/12/10 01:40:37;;;;;;;10.40;4.13;;;;;;;;;;4932303;29;20182;-76
2021/12/10 01:43:07;;;;;;;12.33;4.10;;;;;;;;;;4931366;29;20192;-77
2021/12/10 01:45:35;;;;;;;9.80;4.27;;;;;;;;;;4914592;29;20741;-76
2021/12/10 01:48:07;;;;;;;8.27;3.50;;;;;;;;;;4932612;29;20214;-76
2021/12/10 01:50:34;;;;;;;7.57;3.70;;;;;;;;;;4933172;29;20701;-76
2021/12/10 01:53:04;;;;;;;7.60;3.90;;;;;;;;;;4906204;29;20209;-76
2021/12/10 01:55:31;;;;;;;11.37;3.73;;;;;;;;;;4943127;29;20212;-76
2021/12/10 01:57:58;;;;;;;7.07;3.43;;;;;;;;;;4919312;29;20233;-76
2021/12/10 02:00:27;;;;;;;10.07;3.70;;;;;;;;;;4916289;29;20182;-76
2021/12/10 02:02:53;;;;;;;9.13;3.57;;;;;;;;;;4933621;29;20654;-77
2021/12/10 02:05:20;;;;;;;6.80;3.77;;;;;;;;;;4935471;29;20190;-77
2021/12/10 02:07:47;;;;;;;7.97;3.60;;;;;;;;;;4931915;29;20205;-76
2021/12/10 02:10:15;;;;;;;6.57;3.30;;;;;;;;;;4934193;29;20186;-76
2021/12/10 02:12:41;;;;;;;5.93;3.27;;;;;;;;;;4931869;29;20217;-76
2021/12/10 02:15:10;;;;;;;11.90;3.60;;;;;;;;;;4933136;29;20205;-76
2021/12/10 02:17:38;;;;;;;6.47;3.43;;;;;;;;;;4933413;28;20736;-76
2021/12/10 02:20:05;;;;;;;7.20;3.30;;;;;;;;;;4938965;29;20174;-76
2021/12/10 02:22:32;;;;;;;9.60;4.20;;;;;;;;;;4932945;29;20189;-76
2021/12/10 02:24:58;;;;;;;9.07;3.77;;;;;;;;;;4935516;29;20268;-76
2021/12/10 02:27:24;;;;;;;6.60;3.20;;;;;;;;;;4932071;28;20209;-76
2021/12/10 02:29:50;;;;;;;7.40;3.27;;;;;;;;;;4914836;29;20260;-76
2021/12/10 02:32:16;;;;;;;10.20;3.50;;;;;;;;;;4931250;29;20236;-76
2021/12/10 02:34:46;;;;;;;9.10;4.10;;;;;;;;;;4938285;29;20205;-76
2021/12/10 02:37:14;;;;;;;10.27;3.50;;;;;;;;;;4932752;29;20174;-77
2021/12/10 02:39:40;;;;;;;8.17;3.77;;;;;;;;;;4930908;29;20280;-76
2021/12/10 02:42:07;;;;;;;8.37;3.93;;;;;;;;;;4929442;29;20682;-76
2021/12/10 02:44:33;;;;;;;9.53;3.57;;;;;;;;;;4914372;29;20190;-76
2021/12/10 02:47:00;;;;;;;8.07;4.07;;;;;;;;;;4909937;29;20195;-75
2021/12/10 02:49:27;;;;;;;9.23;4.30;;;;;;;;;;4931255;29;20285;-76
2021/12/10 02:51:54;;;;;;;8.07;3.73;;;;;;;;;;4916486;29;20222;-76
2021/12/10 02:54:31;;;;;;;7.27;3.70;;;;;;;;;;4934345;29;20201;-76
2021/12/10 02:56:58;;;;;;;6.67;3.50;;;;;;;;;;4934189;29;20646;-76
2021/12/10 02:59:24;;;;;;;7.37;3.50;;;;;;;;;;4937177;29;20292;-76
2021/12/10 03:01:51;;;;;;;6.27;3.67;;;;;;;;;;4932294;29;20190;-76
2021/12/10 03:04:18;;;;;;;6.10;3.40;;;;;;;;;;4923829;29;20202;-76
2021/12/10 03:06:50;;;;;;;5.83;3.20;;;;;;;;;;4941773;29;20197;-76
2021/12/10 03:09:18;;;;;;;6.10;3.37;;;;;;;;;;4934739;29;20214;-77
2021/12/10 03:11:48;;;;;;;6.70;3.10;;;;;;;;;;4917388;29;20217;-76
2021/12/10 03:14:16;;;;;;;6.27;2.80;;;;;;;;;;4917445;29;20569;-76
2021/12/10 03:16:43;;;;;;;6.20;3.10;;;;;;;;;;4938628;29;20290;-76
2021/12/10 03:19:09;;;;;;;8.63;3.07;;;;;;;;;;4940105;29;20209;-76
2021/12/10 03:21:38;;;;;;;8.53;3.20;;;;;;;;;;4919924;29;20185;-76
2021/12/10 03:24:04;;;;;;;8.83;3.70;;;;;;;;;;4939753;29;20188;-76
2021/12/10 03:26:30;;;;;;;5.80;2.80;;;;;;;;;;4939141;29;20330;-77
2021/12/10 03:28:57;;;;;;;6.57;2.97;;;;;;;;;;4936819;29;20292;-77
2021/12/10 03:31:25;;;;;;;7.03;3.00;;;;;;;;;;4937244;29;20189;-76
2021/12/10 03:33:52;;;;;;;6.00;3.07;;;;;;;;;;4936914;29;20213;-76
2021/12/10 03:36:18;;;;;;;5.47;2.97;;;;;;;;;;4933850;29;20190;-76
2021/12/10 03:38:45;;;;;;;6.37;2.90;;;;;;;;;;4938588;28;20210;-76
2021/12/10 03:41:11;;;;;;;9.20;3.20;;;;;;;;;;4916071;29;20362;-76
2021/12/10 03:43:38;;;;;;;6.10;3.20;;;;;;;;;;4935697;29;20198;-76
2021/12/10 03:46:05;;;;;;;6.20;2.87;;;;;;;;;;4921505;29;20186;-76
2021/12/10 03:48:33;;;;;;;9.10;2.77;;;;;;;;;;4937605;29;20345;-76
2021/12/10 03:51:01;;;;;;;8.07;2.77;;;;;;;;;;4938769;29;20688;-76
2021/12/10 03:53:27;;;;;;;5.20;2.77;;;;;;;;;;4934226;29;20551;-76
2021/12/10 03:55:58;;;;;;;7.37;2.70;;;;;;;;;;4917494;29;20281;-76
2021/12/10 03:58:25;;;;;;;6.30;2.80;;;;;;;;;;4943390;28;20212;-77
2021/12/10 04:00:53;;;;;;;9.23;2.70;;;;;;;;;;4943157;29;20185;-76
2021/12/10 04:03:21;;;;;;;5.27;2.40;;;;;;;;;;4918227;29;20212;-76
2021/12/10 04:05:47;;;;;;;5.03;2.30;;;;;;;;;;4938641;29;20182;-76
2021/12/10 04:08:14;;;;;;;5.87;2.60;;;;;;;;;;4946191;29;20208;-76
2021/12/10 04:10:41;;;;;;;8.30;2.97;;;;;;;;;;4937607;29;20185;-76
2021/12/10 04:13:07;;;;;;;5.93;3.30;;;;;;;;;;4938327;29;20217;-76
2021/12/10 04:15:36;;;;;;;7.77;3.37;;;;;;;;;;4937161;29;20181;-77
2021/12/10 04:18:03;;;;;;;7.27;2.97;;;;;;;;;;4935375;29;20209;-76
2021/12/10 04:20:30;;;;;;;4.27;2.27;;;;;;;;;;4942790;29;20310;-77
2021/12/10 04:22:58;;;;;;;7.53;2.97;;;;;;;;;;4935221;29;20193;-77
2021/12/10 04:25:25;;;;;;;7.73;2.87;;;;;;;;;;4921338;29;20261;-76
2021/12/10 04:27:52;;;;;;;3.87;2.30;;;;;;;;;;4937110;29;20225;-76
2021/12/10 04:30:19;;;;;;;4.93;2.83;;;;;;;;;;4937263;29;20272;-76
2021/12/10 04:32:45;;;;;;;7.57;2.63;;;;;;;;;;4933834;29;20220;-76
2021/12/10 04:35:11;;;;;;;6.00;2.40;;;;;;;;;;4939568;29;20286;-77
2021/12/10 04:37:37;;;;;;;9.47;2.60;;;;;;;;;;4938666;29;20237;-76
2021/12/10 04:40:06;;;;;;;5.90;2.53;;;;;;;;;;4922906;29;20593;-76
2021/12/10 04:42:32;;;;;;;5.57;2.50;;;;;;;;;;4937694;29;20193;-76
2021/12/10 04:44:59;;;;;;;6.63;2.60;;;;;;;;;;4940471;29;20753;-76
2021/12/10 04:47:26;;;;;;;7.80;2.30;;;;;;;;;;4931228;29;20190;-76
2021/12/10 04:49:53;;;;;;;5.53;2.23;;;;;;;;;;4916926;29;20331;-76
2021/12/10 04:52:19;;;;;;;4.60;2.30;;;;;;;;;;4913764;29;20249;-76
2021/12/10 04:54:45;;;;;;;4.33;2.37;;;;;;;;;;4907529;29;20261;-77
2021/12/10 04:57:12;;;;;;;8.63;2.40;;;;;;;;;;4939437;29;20826;-76
2021/12/10 04:59:40;;;;;;;5.67;2.60;;;;;;;;;;4937678;28;20700;-76
2021/12/10 05:02:08;;;;;;;5.30;2.50;;;;;;;;;;4931680;29;20202;-76
2021/12/10 05:04:35;;;;;;;4.53;2.30;;;;;;;;;;4939405;29;20184;-76
2021/12/10 05:07:04;;;;;;;5.40;2.23;;;;;;;;;;4935786;29;20624;-76
2021/12/10 05:09:30;;;;;;;5.17;2.43;;;;;;;;;;4937918;28;20205;-76
2021/12/10 05:11:57;;;;;;;5.30;2.50;;;;;;;;;;4931558;29;20252;-76
2021/12/10 05:14:24;;;;;;;3.87;2.63;;;;;;;;;;4921789;29;20608;-76
2021/12/10 05:16:51;;;;;;;5.27;2.50;;;;;;;;;;4937328;29;20531;-76
2021/12/10 05:19:21;;;;;;;5.33;2.80;;;;;;;;;;4935425;29;20657;-76
2021/12/10 05:21:48;;;;;;;4.40;2.63;;;;;;;;;;4933723;29;20294;-76
2021/12/10 05:24:14;;;;;;;5.40;2.60;;;;;;;;;;4921054;29;20182;-76
2021/12/10 05:26:40;;;;;;;5.93;2.90;;;;;;;;;;4918405;29;20559;-76
2021/12/10 05:29:07;;;;;;;8.37;3.10;;;;;;;;;;4935995;29;20285;-76
2021/12/10 05:31:35;;;;;;;6.73;3.10;;;;;;;;;;4929909;29;20683;-76
2021/12/10 05:34:01;;;;;;;4.23;2.57;;;;;;;;;;4930494;29;20265;-76
2021/12/10 05:36:28;;;;;;;4.57;2.73;;;;;;;;;;4924783;29;20276;-76
2021/12/10 05:38:54;;;;;;;15.53;8.00;;;;;;;;;;4917120;29;20232;-76
2021/12/10 05:41:20;;;;;;;5.40;3.17;;;;;;;;;;4916901;29;20240;-76
2021/12/10 05:43:46;;;;;;;5.00;2.70;;;;;;;;;;4932690;29;20586;-76
2021/12/10 05:46:13;;;;;;;6.07;2.70;;;;;;;;;;4941731;29;20189;-76
2021/12/10 05:48:40;;;;;;;8.57;2.70;;;;;;;;;;4951518;28;20204;-76
2021/12/10 05:51:06;;;;;;;5.07;2.70;;;;;;;;;;4941296;29;20254;-76
2021/12/10 05:53:32;;;;;;;5.40;2.67;;;;;;;;;;4932335;29;20236;-76
2021/12/10 05:55:59;;;;;;;6.40;3.00;;;;;;;;;;4933120;29;20233;-76
2021/12/10 05:58:25;;;;;;;6.20;2.73;;;;;;;;;;4934964;29;20194;-76
2021/12/10 06:00:53;;;;;;;7.03;2.60;;;;;;;;;;4942892;29;20302;-76
2021/12/10 06:03:19;;;;;;;4.30;2.53;;;;;;;;;;4934377;29;20244;-76
2021/12/10 06:05:46;;;;;;;6.50;2.87;;;;;;;;;;4920898;29;20190;-75
2021/12/10 06:08:13;;;;;;;6.17;2.90;;;;;;;;;;4925058;29;20232;-75
2021/12/10 06:10:40;;;;;;;6.40;2.47;;;;;;;;;;4922606;29;20893;-76
2021/12/10 06:13:07;;;;;;;5.30;2.73;;;;;;;;;;4934661;29;20214;-76
2021/12/10 06:15:33;;;;;;;7.13;2.80;;;;;;;;;;4934756;29;20186;-76
2021/12/10 06:17:59;;;;;;;8.53;3.30;;;;;;;;;;4945605;28;20205;-76
2021/12/10 06:20:28;;;;;;;8.70;3.10;;;;;;;;;;4935556;29;20251;-76
2021/12/10 06:22:55;;;;;;;6.27;3.40;;;;;;;;;;4915731;29;20186;-76
2021/12/10 06:25:21;;;;;;;5.93;3.40;;;;;;;;;;4935809;29;20182;-76
2021/12/10 06:27:47;;;;;;;6.30;3.73;;;;;;;;;;4932806;29;20224;-75
2021/12/10 06:30:15;;;;;;;5.87;3.40;;;;;;;;;;4945614;28;20268;-76
2021/12/10 06:32:42;;;;;;;6.00;3.07;;;;;;;;;;4917120;29;20244;-76
2021/12/10 06:35:09;;;;;;;7.73;2.93;;;;;;;;;;4929179;29;20189;-76
2021/12/10 06:37:36;;;;;;;7.63;3.10;;;;;;;;;;4934019;28;20208;-76
2021/12/10 06:40:04;;;;;;;14.63;3.10;;;;;;;;;;4935089;29;20182;-80
2021/12/10 06:42:30;;;;;;;8.87;3.07;;;;;;;;;;4906821;29;20277;-81
2021/12/10 06:44:57;;;;;;;6.00;2.73;;;;;;;;;;4920840;29;20329;-81
2021/12/10 06:47:23;;;;;;;7.73;3.13;;;;;;;;;;4948880;29;20189;-80
2021/12/10 06:49:49;;;;;;;7.17;3.27;;;;;;;;;;4941595;28;20588;-79
2021/12/10 06:52:15;;;;;;;5.43;3.07;;;;;;;;;;4921062;29;20733;-82
2021/12/10 06:54:41;;;;;;;4.97;2.67;;;;;;;;;;4919994;29;20204;-82
2021/12/10 06:57:08;;;;;;;5.33;2.63;;;;;;;;;;4927009;29;20269;-82
2021/12/10 06:59:34;;;;;;;3.90;2.40;;;;;;;;;;4892776;29;20264;-82
2021/12/10 07:02:00;;;;;;;5.50;2.83;;;;;;;;;;4933189;29;20192;-82
2021/12/10 07:04:26;;;;;;;4.10;2.20;;;;;;;;;;4947812;29;20243;-79
2021/12/10 07:06:53;;;;;;;5.33;2.47;;;;;;;;;;4929710;29;20186;-81
2021/12/10 07:09:24;;;;;;;4.57;2.33;;;;;;;;;;4924322;29;20217;-82
2021/12/10 07:11:51;;;;;;;8.50;2.50;;;;;;;;;;4938869;29;20197;-78
2021/12/10 07:14:17;;;;;;;5.33;2.00;;;;;;;;;;4936426;29;20248;-79
2021/12/10 07:16:44;;;;;;;4.83;2.47;;;;;;;;;;4928073;29;21002;-79
2021/12/10 07:19:10;;;;;;;5.83;2.07;;;;;;;;;;4939030;29;20799;-79
2021/12/10 07:21:37;;;;;;;4.80;2.10;;;;;;;;;;4936782;29;20205;-81
2021/12/10 07:24:05;;;;;;;4.87;2.50;;;;;;;;;;4928674;29;20186;-78
2021/12/10 07:26:32;;;;;;;5.67;2.40;;;;;;;;;;4943532;29;20201;-81
2021/12/10 07:28:59;;;;;;;6.53;2.70;;;;;;;;;;4903244;29;20226;-81
2021/12/10 07:31:26;;;;;;;5.23;2.40;;;;;;;;;;4917404;29;20333;-81
2021/12/10 07:33:53;;;;;;;5.57;2.53;;;;;;;;;;4936312;29;20256;-82
2021/12/10 07:36:20;;;;;;;6.40;2.80;;;;;;;;;;4935752;29;20186;-81
2021/12/10 07:38:46;;;;;;;5.40;2.77;;;;;;;;;;4919348;29;20208;-81
2021/12/10 07:41:12;;;;;;;6.87;2.80;;;;;;;;;;4945057;29;20189;-81
2021/12/10 07:43:39;;;;;;;4.60;2.50;;;;;;;;;;4927767;29;20190;-81
2021/12/10 07:46:05;;;;;;;4.87;2.80;;;;;;;;;;4948596;29;20198;-81
2021/12/10 07:48:34;;;;;;;4.80;2.70;;;;;;;;;;4917469;29;20216;-81
2021/12/10 07:51:04;;;;;;;6.37;3.00;;;;;;;;;;4903568;29;20211;-80
2021/12/10 07:53:32;;;;;;;7.63;3.30;;;;;;;;;;4936449;29;20226;-81
2021/12/10 07:56:01;;;;;;;7.07;3.00;;;;;;;;;;4936655;29;20186;-79
2021/12/10 07:58:27;;;;;;;9.83;3.20;;;;;;;;;;4931126;29;20689;-78
2021/12/10 08:00:54;;;;;;;7.57;3.30;;;;;;;;;;4914011;29;20189;-79
2021/12/10 08:03:20;;;;;;;9.93;3.33;;;;;;;;;;4926196;29;20666;-78
2021/12/10 08:05:47;;;;;;;4.80;2.73;;;;;;;;;;4926263;29;21132;-78
2021/12/10 08:08:14;;;;;;;4.53;2.73;;;;;;;;;;4937187;28;20210;-78
2021/12/10 08:10:41;;;;;;;6.13;2.80;;;;;;;;;;4923935;29;20680;-79
2021/12/10 08:13:07;;;;;;;6.53;2.83;;;;;;;;;;4925877;29;20209;-79
2021/12/10 08:15:34;;;;;;;6.47;2.93;;;;;;;;;;4926554;29;20547;-78
2021/12/10 08:18:00;;;;;;;6.60;2.87;;;;;;;;;;4908963;29;20215;-79
2021/12/10 08:20:27;;;;;;;4.90;3.13;;;;;;;;;;4916178;29;20213;-79
2021/12/10 08:22:54;;;;;;;3.77;2.40;;;;;;;;;;4933028;29;20182;-80
2021/12/10 08:25:21;;;;;;;6.10;2.90;;;;;;;;;;4923746;29;20182;-77
2021/12/10 08:27:48;;;;;;;6.20;2.70;;;;;;;;;;4933559;29;20599;-79
2021/12/10 08:30:16;;;;;;;4.23;2.70;;;;;;;;;;4933717;29;20193;-78
2021/12/10 08:32:42;;;;;;;6.93;2.67;;;;;;;;;;4933167;29;20206;-79
2021/12/10 08:35:12;;;;;;;4.80;2.60;;;;;;;;;;4921651;29;20578;-78
2021/12/10 08:37:38;;;;;;;7.63;3.03;;;;;;;;;;4917905;29;20196;-78
2021/12/10 08:40:05;;;;;;;5.30;2.90;;;;;;;;;;4935254;29;20182;-78
2021/12/10 08:42:32;;;;;;;6.90;3.03;;;;;;;;;;4938488;29;20178;-79
2021/12/10 08:44:58;;;;;;;6.20;3.13;;;;;;;;;;4934740;29;20185;-79
2021/12/10 08:47:24;;;;;;;5.33;2.90;;;;;;;;;;4931920;29;20289;-79
2021/12/10 08:49:50;;;;;;;4.83;2.90;;;;;;;;;;4917036;29;20210;-79
2021/12/10 08:52:18;;;;;;;4.20;2.90;;;;;;;;;;4935092;29;20237;-79
2021/12/10 08:54:45;;;;;;;5.33;3.00;;;;;;;;;;4933202;29;20189;-79
2021/12/10 08:57:11;;;;;;;9.90;4.50;;;;;;;;;;4928286;29;20193;-79
2021/12/10 08:59:38;;;;;;;7.03;3.37;;;;;;;;;;4928715;29;20206;-79
2021/12/10 09:02:06;;;;;;;7.57;3.90;;;;;;;;;;4910869;29;20202;-79
2021/12/10 09:04:34;;;;;;;6.63;3.40;;;;;;;;;;4933706;29;20232;-79
2021/12/10 09:07:03;;;;;;;4.17;2.87;;;;;;;;;;4915675;29;20190;-79
2021/12/10 09:09:31;;;;;;;6.30;3.20;;;;;;;;;;4933294;29;20257;-79
2021/12/10 09:11:58;;;;;;;6.40;3.40;;;;;;;;;;4935253;29;20188;-79
2021/12/10 09:14:28;;;;;;;7.20;2.90;;;;;;;;;;4933021;29;20182;-79
2021/12/10 09:16:56;;;;;;;7.40;3.60;;;;;;;;;;4939508;29;20185;-79
2021/12/10 09:19:22;;;;;;;4.83;2.53;;;;;;;;;;4917966;29;20229;-79
2021/12/10 09:21:48;;;;;;;4.40;2.70;;;;;;;;;;4935429;29;20206;-79
2021/12/10 09:24:17;;;;;;;6.07;2.93;;;;;;;;;;4934280;29;20193;-79
2021/12/10 09:26:45;;;;;;;5.77;2.70;;;;;;;;;;4941794;29;20198;-79
2021/12/10 09:29:12;;;;;;;5.60;3.10;;;;;;;;;;4918150;29;20209;-79
2021/12/10 09:31:42;;;;;;;8.40;3.80;;;;;;;;;;4910653;29;20268;-79
2021/12/10 09:34:08;;;;;;;7.30;3.40;;;;;;;;;;4934213;29;20222;-79
2021/12/10 09:36:34;;;;;;;5.70;2.83;;;;;;;;;;4933787;29;20182;-79
2021/12/10 09:39:00;;;;;;;5.63;2.60;;;;;;;;;;4935550;29;20213;-79
2021/12/10 09:41:27;;;;;;;7.20;3.30;;;;;;;;;;4919797;29;20194;-79
2021/12/10 09:43:54;;;;;;;8.13;3.63;;;;;;;;;;4934917;29;20721;-79
2021/12/10 09:46:23;;;;;;;5.10;3.20;;;;;;;;;;4932035;29;20194;-79
2021/12/10 09:48:49;;;;;;;7.37;3.00;;;;;;;;;;4934602;29;20293;-79
2021/12/10 09:51:18;;;;;;;5.57;2.90;;;;;;;;;;4933725;29;20225;-79
2021/12/10 09:53:46;;;;;;;3.67;2.23;;;;;;;;;;4928607;29;20240;-79
2021/12/10 09:56:14;;;;;;;6.07;2.73;;;;;;;;;;4915787;29;20212;-79
2021/12/10 09:58:40;;;;;;;4.73;2.30;;;;;;;;;;4932486;29;20217;-80
2021/12/10 10:01:42;;;;;;;4.20;2.20;;;;;;;;;;4931669;29;20445;-79
2021/12/10 10:04:10;;;;;;;4.57;2.40;;;;;;;;;;4879866;29;20675;-79
2021/12/10 10:06:38;;;;;;;6.10;2.43;;;;;;;;;;4935172;29;20565;-79
2021/12/10 10:09:05;;;;;;;4.60;2.50;;;;;;;;;;4931868;29;20208;-80
2021/12/10 10:11:33;;;;;;;3.77;2.37;;;;;;;;;;4930469;29;20186;-79
2021/12/10 10:13:59;;;;;;;3.97;2.50;;;;;;;;;;4938901;29;20296;-79
2021/12/10 10:16:27;;;;;;;3.60;2.40;;;;;;;;;;4932682;29;20178;-79
2021/12/10 10:18:53;;;;;;;4.17;2.70;;;;;;;;;;4915166;29;20297;-79
2021/12/10 10:21:22;;;;;;;6.83;2.90;;;;;;;;;;4915584;29;20194;-79
2021/12/10 10:23:50;;;;;;;3.80;2.40;;;;;;;;;;4937359;29;20198;-79
2021/12/10 10:26:21;;;;;;;4.63;2.30;;;;;;;;;;4934936;29;20675;-79
2021/12/10 10:28:48;;;;;;;3.57;2.40;;;;;;;;;;4910277;29;20780;-79
2021/12/10 10:31:19;;;;;;;5.03;2.93;;;;;;;;;;4934418;29;20193;-79
2021/12/10 10:33:46;;;;;;;4.30;2.50;;;;;;;;;;4932422;29;20216;-79
2021/12/10 10:36:19;;;;;;;4.47;2.70;;;;;;;;;;4914762;29;20190;-79
2021/12/10 10:38:56;;;;;;;6.97;2.77;;;;;;;;;;4913967;29;20213;-79
2021/12/10 10:41:24;;;;;;;5.20;2.60;;;;;;;;;;4930867;29;20200;-79
2021/12/10 10:43:50;;;;;;;3.50;2.80;;;;;;;;;;4932129;29;20217;-79
2021/12/10 10:46:16;;;;;;;3.83;2.77;;;;;;;;;;4931949;29;20245;-79
2021/12/10 10:48:44;;;;;;;4.67;2.67;;;;;;;;;;4937148;29;20594;-79
2021/12/10 10:51:14;;;;;;;3.47;2.47;;;;;;;;;;4930907;29;20261;-79
2021/12/10 10:53:49;;;;;;;5.07;2.87;;;;;;;;;;4931886;29;20361;-79
2021/12/10 10:56:18;;;;;;;3.90;2.60;;;;;;;;;;4931262;29;20552;-79
2021/12/10 10:58:46;;;;;;;4.73;2.97;;;;;;;;;;4931771;29;20194;-79
2021/12/10 11:01:23;;;;;;;4.27;3.00;;;;;;;;;;4914957;29;20198;-79
2021/12/10 11:03:53;;;;;;;5.53;2.90;;;;;;;;;;4914405;29;20212;-79
2021/12/10 11:06:24;;;;;;;4.07;2.80;;;;;;;;;;4938424;29;20190;-79
2021/12/10 11:08:52;;;;;;;4.87;2.73;;;;;;;;;;4914964;29;20296;-79
2021/12/10 11:11:18;;;;;;;5.47;3.37;;;;;;;;;;4932237;29;20205;-79
2021/12/10 11:13:46;;;;;;;6.57;3.40;;;;;;;;;;4931776;29;20362;-78
2021/12/10 11:16:14;;;;;;;5.73;3.47;;;;;;;;;;4931455;29;20681;-75
2021/12/10 11:18:42;;;;;;;5.37;3.33;;;;;;;;;;4930511;29;20208;-77
2021/12/10 11:21:10;;;;;;;7.70;3.17;;;;;;;;;;4931363;29;20245;-74
2021/12/10 11:23:38;;;;;;;4.50;3.50;;;;;;;;;;4931745;29;20181;-74
2021/12/10 11:26:05;;;;;;;7.90;3.90;;;;;;;;;;4934495;29;20182;-74
2021/12/10 11:28:32;;;;;;;7.00;3.47;;;;;;;;;;4934690;29;20565;-74
2021/12/10 11:31:03;;;;;;;5.83;3.33;;;;;;;;;;4933857;29;20265;-74
2021/12/10 11:33:32;;;;;;;4.53;3.70;;;;;;;;;;4933317;29;20224;-74
2021/12/10 11:36:00;;;;;;;5.23;3.20;;;;;;;;;;4933902;29;20269;-78
2021/12/10 11:38:31;;;;;;;5.43;3.20;;;;;;;;;;4931818;29;20289;-74
2021/12/10 11:41:05;;;;;;;5.97;3.37;;;;;;;;;;4933737;29;20194;-78
2021/12/10 11:46:29;;;;;;;4.70;2.87;;;;;;;;;;4931623;29;20193;-77
2021/12/10 11:49:11;;;;;;;7.87;3.43;;;;;;;;;;4935602;29;20578;-77
2021/12/10 11:51:43;;;;;;;4.63;3.27;;;;;;;;;;4938292;29;20302;-79
2021/12/10 11:54:18;;;;;;;5.40;2.97;;;;;;;;;;4933856;29;20237;-77
2021/12/10 11:56:50;;;;;;;3.77;2.60;;;;;;;;;;4933381;29;20200;-78
2021/12/10 11:59:18;;;;;;;4.37;2.67;;;;;;;;;;4919514;29;20234;-78
2021/12/10 12:02:05;;;;;;;6.50;3.03;;;;;;;;;;4924116;29;20203;-79
2021/12/10 12:04:46;;;;;;;5.10;3.00;;;;;;;;;;4933491;29;20186;-79
2021/12/10 12:07:18;;;;;;;4.60;2.50;;;;;;;;;;4932804;29;20253;-78
2021/12/10 12:09:45;;;;;;;24.87;15.03;;;;;;;;;;4931676;29;20708;-78
2021/12/10 12:12:13;;;;;;;7.03;3.50;;;;;;;;;;4933543;29;20222;-78
2021/12/10 12:14:45;;;;;;;5.13;2.90;;;;;;;;;;4915063;29;20268;-76
2021/12/10 12:17:28;;;;;;;10.93;4.53;;;;;;;;;;4932102;29;20202;-80
2021/12/10 12:19:54;;;;;;;6.20;3.70;;;;;;;;;;4933486;29;20202;-78
2021/12/10 12:24:56;;;;;;;5.67;2.93;;;;;;;;;;4931807;29;20185;-78
2021/12/10 12:25:30;;;;;;;5.97;3.07;;;;;;;;;;4914003;29;20653;-78
2021/12/10 12:28:08;;;;;;;5.17;2.77;;;;;;;;;;4932784;29;20225;-77
2021/12/10 12:30:34;;;;;;;5.13;2.77;;;;;;;;;;4895990;29;20237;-78
2021/12/10 12:33:01;;;;;;;3.00;2.50;;;;;;;;;;4928208;29;20217;-80
2021/12/10 12:35:33;;;;;;;4.53;2.57;;;;;;;;;;4914448;29;20190;-79
2021/12/10 12:38:15;;;;;;;4.60;2.47;;;;;;;;;;4929964;29;20357;-76
2021/12/10 12:40:44;;;;;;;4.70;2.60;;;;;;;;;;4910800;29;20190;-77
2021/12/10 12:43:11;;;;;;;5.77;2.53;;;;;;;;;;4914267;29;20190;-78
2021/12/10 12:45:38;;;;;;;4.30;2.90;;;;;;;;;;4933141;29;20182;-77
2021/12/10 12:48:09;;;;;;;4.83;2.60;;;;;;;;;;4915271;29;20330;-80
2021/12/10 12:50:36;;;;;;;4.03;2.70;;;;;;;;;;4933332;29;20260;-77
2021/12/10 12:53:15;;;;;;;5.13;3.30;;;;;;;;;;4931758;29;20218;-78
2021/12/10 12:55:47;;;;;;;7.87;6.70;;;;;;;;;;4931620;29;20790;-77
2021/12/10 12:58:22;;;;;;;5.77;4.10;;;;;;;;;;4930469;29;20213;-77
2021/12/10 13:01:12;;;;;;;4.77;3.87;;;;;;;;;;4914840;29;20224;-78
2021/12/10 13:03:56;;;;;;;9.07;6.10;;;;;;;;;;4933030;29;20186;-78
2021/12/10 13:06:27;;;;;;;6.17;4.60;;;;;;;;;;4928623;29;20678;-80
2021/12/10 13:09:06;;;;;;;5.87;4.10;;;;;;;;;;4906746;29;20241;-80
2021/12/10 13:11:48;;;;;;;5.70;4.10;;;;;;;;;;4937524;29;20221;-80
2021/12/10 13:14:18;;;;;;;6.17;5.00;;;;;;;;;;4918439;29;20673;-78
2021/12/10 13:16:52;;;;;;;3.70;2.53;;;;;;;;;;4932141;29;20186;-78
2021/12/10 13:19:24;;;;;;;3.83;2.37;;;;;;;;;;4934495;29;20197;-80
2021/12/10 13:21:54;;;;;;;4.47;3.50;;;;;;;;;;4939476;29;20226;-79
2021/12/10 13:24:21;;;;;;;5.63;5.00;;;;;;;;;;4928875;29;20205;-79
2021/12/10 13:26:47;;;;;;;4.40;3.30;;;;;;;;;;4926886;29;20201;-79
2021/12/10 13:29:13;;;;;;;5.50;2.80;;;;;;;;;;4929970;29;20222;-77
2021/12/10 13:31:40;;;;;;;6.73;3.10;;;;;;;;;;4929029;29;20178;-78
2021/12/10 13:34:10;;;;;;;5.70;2.90;;;;;;;;;;4929990;29;20220;-76
2021/12/10 13:36:37;;;;;;;3.80;3.10;;;;;;;;;;4914729;29;20182;-75
2021/12/10 13:39:04;;;;;;;3.73;2.63;;;;;;;;;;4930700;29;20206;-76
2021/12/10 13:41:33;;;;;;;7.77;5.40;;;;;;;;;;4915168;29;20186;-76
2021/12/10 13:44:06;;;;;;;7.40;6.00;;;;;;;;;;4913979;29;20208;-75
2021/12/10 13:46:33;;;;;;;21.37;15.00;;;;;;;;;;4927550;29;20190;-76
2021/12/10 13:49:03;;;;;;;10.07;6.90;;;;;;;;;;4923834;29;20301;-76
2021/12/10 13:51:34;;;;;;;21.13;14.40;;;;;;;;;;4926256;29;20182;-77
2021/12/10 13:54:08;;;;;;;9.47;6.23;;;;;;;;;;4923588;29;20232;-75
2021/12/10 13:56:35;;;;;;;12.97;8.27;;;;;;;;;;4907129;29;20227;-76
2021/12/10 13:59:07;;;;;;;17.03;11.27;;;;;;;;;;4923800;29;20206;-76
2021/12/10 14:01:38;;;;;;;13.33;9.03;;;;;;;;;;4926695;29;20193;-75
2021/12/10 14:04:13;;;;;;;6.67;4.70;;;;;;;;;;4926819;29;20713;-75
2021/12/10 14:06:42;;;;;;;20.40;15.23;;;;;;;;;;4924851;29;20186;-75
2021/12/10 14:12:11;;;;;;;23.67;18.77;;;;;;;;;;4923466;29;20248;-75
2021/12/10 14:14:39;;;;;;;14.93;10.47;;;;;;;;;;4933467;29;20193;-75
2021/12/10 14:17:08;;;;;;;28.30;18.37;;;;;;;;;;4925167;29;20186;-76
2021/12/10 14:19:39;;;;;;;19.00;11.37;;;;;;;;;;4929014;29;20212;-76
2021/12/10 14:22:06;;;;;;;21.53;11.70;;;;;;;;;;4927538;29;20188;-75
2021/12/10 14:24:39;;;;;;;9.53;6.27;;;;;;;;;;4910429;29;20194;-75
2021/12/10 14:27:11;;;;;;;12.60;7.90;;;;;;;;;;4911679;29;20228;-75
2021/12/10 14:29:38;;;;;;;25.53;15.30;;;;;;;;;;4938832;29;20706;-76
2021/12/10 14:32:21;;;;;;;13.63;8.33;;;;;;;;;;4900335;29;20182;-76
2021/12/10 14:35:03;;;;;;;10.43;6.60;;;;;;;;;;4936186;29;20193;-75
2021/12/10 14:37:45;;;;;;;37.90;21.13;;;;;;;;;;4917624;29;20234;-77
2021/12/10 14:40:12;;;;;;;23.30;13.73;;;;;;;;;;4937499;29;20658;-77
2021/12/10 14:42:39;;;;;;;10.97;7.83;;;;;;;;;;4924835;29;20280;-77
2021/12/10 14:45:10;;;;;;;5.53;4.50;;;;;;;;;;4935997;29;20260;-77
2021/12/10 14:47:37;;;;;;;7.60;5.53;;;;;;;;;;4933137;29;20273;-77
2021/12/10 14:50:06;;;;;;;17.83;15.97;;;;;;;;;;4930841;29;20246;-77
2021/12/10 14:52:34;;;;;;;8.90;8.07;;;;;;;;;;4947429;29;20281;-77
2021/12/10 14:55:06;;;;;;;7.13;5.93;;;;;;;;;;4942921;29;20256;-77
2021/12/10 14:57:51;;;;;;;5.33;4.27;;;;;;;;;;4931303;29;20646;-78
2021/12/10 15:00:36;;;;;;;5.90;5.30;;;;;;;;;;4941081;29;20181;-77
2021/12/10 15:03:24;;;;;;;5.27;3.70;;;;;;;;;;4956218;29;20623;-77
2021/12/10 15:06:00;;;;;;;7.13;5.60;;;;;;;;;;4938024;29;20267;-77